createdAt,value
2018-07-06T00:00:04.410Z,99.90
2018-07-06T00:02:47.117Z,99.90
2018-07-06T00:05:28.835Z,99.90
2018-07-06T00:08:08.319Z,99.90
2018-07-06T00:10:48.978Z,99.90
2018-07-06T00:13:28.430Z,99.90
2018-07-06T00:16:08.541Z,99.90
2018-07-06T00:18:49.235Z,99.90
2018-07-06T00:21:33.174Z,99.90
2018-07-06T00:24:12.737Z,99.90
2018-07-06T00:26:53.191Z,99.90
2018-07-06T00:29:33.262Z,99.90
2018-07-06T00:32:13.249Z,99.90
2018-07-06T00:34:52.783Z,99.90
2018-07-06T00:37:32.314Z,99.90
2018-07-06T00:40:12.610Z,99.90
2018-07-06T00:42:53.304Z,99.90
2018-07-06T00:45:33.141Z,99.90
2018-07-06T00:48:12.758Z,99.90
2018-07-06T00:50:52.507Z,99.90
2018-07-06T00:56:23.166Z,99.90
2018-07-06T00:59:03.070Z,99.90
2018-07-06T01:01:43.241Z,99.90
2018-07-06T01:06:56.618Z,99.90
2018-07-06T01:12:19.976Z,99.90
2018-07-06T01:15:02.695Z,99.90
2018-07-06T01:17:42.414Z,99.90
2018-07-06T01:20:23.233Z,99.90
2018-07-06T01:25:36.092Z,99.90
2018-07-06T01:28:19.842Z,99.90
2018-07-06T01:31:02.707Z,99.90
2018-07-06T01:33:42.289Z,99.90
2018-07-06T01:36:21.778Z,99.90
2018-07-06T01:39:03.498Z,99.90
2018-07-06T01:41:43.275Z,99.90
2018-07-06T01:44:22.818Z,99.90
2018-07-06T01:47:03.097Z,99.90
2018-07-06T01:49:42.798Z,99.90
2018-07-06T01:52:22.381Z,99.90
2018-07-06T01:55:01.948Z,99.90
2018-07-06T01:57:41.640Z,99.90
2018-07-06T02:00:21.275Z,99.90
2018-07-06T02:03:03.246Z,99.90
2018-07-06T02:05:44.746Z,99.90
2018-07-06T02:08:24.348Z,99.90
2018-07-06T02:11:05.578Z,99.90
2018-07-06T02:13:45.837Z,99.90
2018-07-06T02:16:29.079Z,99.90
2018-07-06T02:19:18.230Z,99.90
2018-07-06T02:21:59.694Z,99.90
2018-07-06T02:24:43.094Z,99.90
2018-07-06T02:27:23.817Z,99.90
2018-07-06T02:30:04.363Z,99.90
2018-07-06T02:32:47.110Z,99.90
2018-07-06T02:35:26.657Z,99.90
2018-07-06T02:38:09.522Z,99.90
2018-07-06T02:40:52.955Z,99.90
2018-07-06T02:43:33.847Z,99.90
2018-07-06T02:46:13.453Z,99.90
2018-07-06T02:48:54.372Z,99.90
2018-07-06T02:51:34.118Z,99.90
2018-07-06T02:54:13.634Z,99.90
2018-07-06T02:56:54.014Z,99.90
2018-07-06T02:59:33.651Z,99.90
2018-07-06T03:02:17.397Z,99.90
2018-07-06T03:04:56.829Z,99.90
2018-07-06T03:07:39.973Z,99.90
2018-07-06T03:10:23.450Z,99.90
2018-07-06T03:13:03.078Z,99.90
2018-07-06T03:15:43.153Z,99.90
2018-07-06T03:18:26.190Z,99.90
2018-07-06T03:23:58.596Z,99.90
2018-07-06T03:26:38.158Z,99.90
2018-07-06T03:29:19.329Z,99.90
2018-07-06T03:32:02.770Z,99.90
2018-07-06T03:37:20.458Z,99.90
2018-07-06T03:40:00.020Z,99.90
2018-07-06T03:42:43.842Z,99.90
2018-07-06T03:45:23.638Z,99.90
2018-07-06T03:48:03.159Z,99.90
2018-07-06T03:50:42.965Z,99.90
2018-07-06T03:53:22.357Z,99.90
2018-07-06T03:56:02.644Z,99.90
2018-07-06T03:58:42.177Z,99.90
2018-07-06T04:01:21.924Z,99.90
2018-07-06T04:04:03.333Z,99.80
2018-07-06T04:06:43.650Z,99.90
2018-07-06T04:09:23.967Z,99.90
2018-07-06T04:12:03.567Z,99.90
2018-07-06T04:20:05.162Z,99.90
2018-07-06T04:22:44.836Z,99.90
2018-07-06T04:25:25.614Z,99.90
2018-07-06T04:28:05.026Z,99.90
2018-07-06T04:30:44.987Z,99.90
2018-07-06T04:33:25.293Z,99.90
2018-07-06T04:36:05.231Z,99.90
2018-07-06T04:38:47.123Z,99.90
2018-07-06T04:41:27.329Z,99.90
2018-07-06T04:44:10.457Z,99.90
2018-07-06T04:46:50.194Z,99.90
2018-07-06T04:52:03.363Z,99.90
2018-07-06T04:54:43.044Z,99.90
2018-07-06T04:57:22.745Z,99.70
2018-07-06T05:00:02.334Z,99.90
2018-07-06T05:02:43.006Z,99.60
2018-07-06T05:05:22.927Z,99.60
2018-07-06T05:08:02.729Z,99.70
2018-07-06T05:10:42.274Z,99.70
2018-07-06T05:15:55.356Z,99.60
2018-07-06T05:18:36.923Z,99.70
2018-07-06T05:21:16.553Z,99.30
2018-07-06T05:23:56.775Z,99.40
2018-07-06T05:26:36.317Z,99.20
2018-07-06T05:29:16.318Z,99.30
2018-07-06T05:31:56.002Z,99.20
2018-07-06T05:34:35.608Z,99.40
2018-07-06T05:37:19.101Z,99.30
2018-07-06T05:39:59.691Z,99.50
2018-07-06T05:42:43.346Z,99.70
2018-07-06T05:45:23.089Z,99.40
2018-07-06T05:48:03.522Z,99.60
2018-07-06T05:50:43.310Z,99.50
2018-07-06T05:53:23.139Z,99.20
2018-07-06T05:56:02.831Z,99.30
2018-07-06T05:58:43.785Z,99.60
2018-07-06T06:01:23.363Z,99.90
2018-07-06T06:04:03.909Z,99.90
2018-07-06T06:06:43.686Z,99.10
2018-07-06T06:09:10.879Z,98.80
2018-07-06T06:11:39.559Z,98.90
2018-07-06T06:14:07.640Z,98.70
2018-07-06T06:16:36.077Z,98.80
2018-07-06T06:19:07.518Z,98.40
2018-07-06T06:21:36.131Z,97.80
2018-07-06T06:24:09.790Z,97.90
2018-07-06T06:26:38.746Z,97.10
2018-07-06T06:29:07.768Z,97.10
2018-07-06T06:31:35.881Z,96.70
2018-07-06T06:34:03.975Z,97.00
2018-07-06T06:36:32.870Z,96.80
2018-07-06T06:39:07.464Z,97.00
2018-07-06T06:41:39.135Z,96.80
2018-07-06T06:44:07.946Z,96.70
2018-07-06T06:46:36.283Z,96.60
2018-07-06T06:49:07.712Z,96.20
2018-07-06T06:51:35.789Z,96.20
2018-07-06T06:54:03.899Z,96.80
2018-07-06T06:56:32.405Z,96.20
2018-07-06T06:59:00.528Z,95.90
2018-07-06T07:01:38.894Z,95.50
2018-07-06T07:04:06.963Z,95.10
2018-07-06T07:06:35.187Z,94.40
2018-07-06T07:09:04.120Z,94.10
2018-07-06T07:11:38.014Z,93.90
2018-07-06T07:14:06.100Z,93.50
2018-07-06T07:16:34.970Z,92.70
2018-07-06T07:19:03.106Z,93.20
2018-07-06T07:21:31.178Z,91.80
2018-07-06T07:24:07.654Z,91.40
2018-07-06T07:26:35.759Z,91.30
2018-07-06T07:29:07.840Z,90.80
2018-07-06T07:31:38.249Z,90.50
2018-07-06T07:34:06.534Z,91.50
2018-07-06T07:36:34.622Z,92.00
2018-07-06T07:39:02.909Z,92.30
2018-07-06T07:41:30.817Z,92.40
2018-07-06T07:43:58.862Z,92.90
2018-07-06T07:46:27.004Z,92.80
2018-07-06T07:48:55.042Z,92.60
2018-07-06T07:52:05.044Z,92.10
2018-07-06T07:54:40.950Z,92.30
2018-07-06T07:57:08.978Z,92.70
2018-07-06T07:59:37.933Z,93.10
2018-07-06T08:02:18.638Z,93.40
2018-07-06T08:04:47.226Z,93.50
2018-07-06T08:07:15.321Z,93.60
2018-07-06T08:09:49.986Z,94.20
2018-07-06T08:12:18.058Z,93.30
2018-07-06T08:14:46.395Z,93.70
2018-07-06T08:17:14.483Z,91.70
2018-07-06T08:19:42.558Z,90.90
2018-07-06T08:22:17.287Z,90.90
2018-07-06T08:24:45.929Z,91.30
2018-07-06T08:27:14.014Z,91.70
2018-07-06T08:29:42.254Z,91.10
2018-07-06T08:32:18.230Z,90.90
2018-07-06T08:34:57.878Z,91.90
2018-07-06T08:37:40.669Z,92.70
2018-07-06T08:40:18.982Z,92.70
2018-07-06T08:42:49.239Z,92.30
2018-07-06T08:45:18.422Z,92.10
2018-07-06T08:47:47.621Z,93.20
2018-07-06T08:50:15.707Z,93.50
2018-07-06T08:52:45.064Z,93.40
2018-07-06T08:55:19.211Z,93.70
2018-07-06T08:57:49.083Z,94.20
2018-07-06T09:00:18.710Z,94.50
2018-07-06T09:02:46.830Z,94.20
2018-07-06T09:05:15.257Z,94.70
2018-07-06T09:07:43.347Z,94.50
2018-07-06T09:10:11.500Z,94.40
2018-07-06T09:12:47.518Z,94.30
2018-07-06T09:15:15.556Z,93.90
2018-07-06T09:17:43.689Z,93.70
2018-07-06T09:20:18.145Z,93.20
2018-07-06T09:22:49.346Z,92.40
2018-07-06T09:25:18.386Z,92.20
2018-07-06T09:27:46.461Z,92.00
2018-07-06T09:30:14.870Z,92.10
2018-07-06T09:32:48.418Z,92.10
2018-07-06T09:35:17.765Z,92.20
2018-07-06T09:37:45.836Z,91.60
2018-07-06T09:40:13.909Z,92.10
2018-07-06T09:42:47.977Z,92.30
2018-07-06T09:45:19.190Z,93.20
2018-07-06T09:47:47.231Z,92.60
2018-07-06T09:50:15.295Z,92.10
2018-07-06T09:55:11.244Z,92.60
2018-07-06T09:57:47.553Z,93.70
2018-07-06T10:00:20.968Z,93.40
2018-07-06T10:02:57.744Z,93.80
2018-07-06T10:05:28.929Z,93.40
2018-07-06T10:07:57.024Z,92.60
2018-07-06T10:10:28.890Z,92.30
2018-07-06T10:12:57.773Z,92.60
2018-07-06T10:15:25.868Z,92.80
2018-07-06T10:17:53.949Z,94.00
2018-07-06T10:20:22.015Z,94.40
2018-07-06T10:22:50.077Z,94.20
2018-07-06T10:25:18.130Z,93.20
2018-07-06T10:27:55.233Z,91.40
2018-07-06T10:30:30.642Z,89.10
2018-07-06T10:33:09.288Z,91.20
2018-07-06T10:35:37.345Z,91.60
2018-07-06T10:38:08.895Z,91.70
2018-07-06T10:40:36.948Z,91.70
2018-07-06T10:43:05.039Z,92.70
2018-07-06T10:45:33.100Z,93.30
2018-07-06T10:48:01.174Z,93.60
2018-07-06T10:50:37.303Z,93.50
2018-07-06T10:53:05.407Z,93.10
2018-07-06T10:55:33.499Z,92.80
2018-07-06T10:58:07.866Z,91.50
2018-07-06T11:00:35.922Z,92.20
2018-07-06T11:03:04.001Z,90.00
2018-07-06T11:05:38.327Z,87.80
2018-07-06T11:08:06.443Z,88.00
2018-07-06T11:10:34.573Z,89.90
2018-07-06T11:13:02.716Z,90.30
2018-07-06T11:15:37.219Z,91.50
2018-07-06T11:18:08.583Z,91.60
2018-07-06T11:20:38.593Z,90.90
2018-07-06T11:23:08.080Z,90.80
2018-07-06T11:25:39.245Z,90.60
2018-07-06T11:28:07.326Z,90.30
2018-07-06T11:30:35.495Z,91.10
2018-07-06T11:33:03.647Z,90.00
2018-07-06T11:35:31.769Z,90.20
2018-07-06T11:37:59.855Z,88.10
2018-07-06T11:40:39.764Z,89.70
2018-07-06T11:43:12.816Z,88.00
2018-07-06T11:45:47.049Z,87.30
2018-07-06T11:48:18.473Z,87.10
2018-07-06T11:50:47.134Z,88.40
2018-07-06T11:53:15.216Z,88.50
2018-07-06T11:55:43.337Z,88.40
2018-07-06T11:58:11.783Z,85.60
2018-07-06T12:00:39.894Z,82.40
2018-07-06T12:03:08.360Z,83.70
2018-07-06T12:08:05.880Z,83.50
2018-07-06T12:10:34.024Z,79.70
2018-07-06T12:13:02.095Z,77.00
2018-07-06T12:15:30.935Z,76.50
2018-07-06T12:18:07.187Z,75.70
2018-07-06T12:20:35.243Z,75.00
2018-07-06T12:23:09.770Z,73.90
2018-07-06T12:25:47.887Z,71.30
2018-07-06T12:28:19.630Z,69.90
2018-07-06T12:30:47.708Z,69.30
2018-07-06T12:33:15.832Z,68.10
2018-07-06T12:35:49.402Z,69.40
2018-07-06T12:38:18.760Z,67.10
2018-07-06T12:40:46.859Z,62.80
2018-07-06T12:43:14.998Z,63.10
2018-07-06T12:45:43.061Z,66.70
2018-07-06T12:48:17.197Z,61.50
2018-07-06T12:50:45.354Z,61.00
2018-07-06T12:53:13.689Z,60.10
2018-07-06T12:55:41.848Z,62.30
2018-07-06T12:58:17.554Z,64.70
2018-07-06T13:00:48.542Z,59.70
2018-07-06T13:03:18.431Z,58.70
2018-07-06T13:05:48.110Z,52.70
2018-07-06T13:08:16.283Z,50.90
2018-07-06T13:10:49.970Z,50.50
2018-07-06T13:13:18.094Z,50.40
2018-07-06T13:15:46.231Z,51.90
2018-07-06T13:18:17.858Z,51.70
2018-07-06T13:20:46.097Z,49.00
2018-07-06T13:23:17.753Z,54.10
2018-07-06T13:25:45.915Z,55.70
2018-07-06T13:28:14.005Z,55.50
2018-07-06T13:30:42.133Z,56.40
2018-07-06T13:35:44.769Z,58.40
2018-07-06T13:38:12.915Z,61.00
2018-07-06T13:40:47.881Z,59.40
2018-07-06T13:43:16.131Z,59.20
2018-07-06T13:45:44.593Z,58.10
2018-07-06T13:48:18.251Z,53.00
2018-07-06T13:50:49.608Z,53.90
2018-07-06T13:53:27.769Z,54.70
2018-07-06T13:55:55.965Z,52.30
2018-07-06T13:58:24.122Z,54.50
2018-07-06T14:00:56.588Z,50.90
2018-07-06T14:03:28.258Z,48.50
2018-07-06T14:05:56.378Z,43.00
2018-07-06T14:08:27.950Z,45.10
2018-07-06T14:10:56.075Z,48.30
2018-07-06T14:13:30.293Z,50.40
2018-07-06T14:15:58.470Z,54.90
2018-07-06T14:18:26.598Z,57.50
2018-07-06T14:20:58.158Z,57.50
2018-07-06T14:23:26.537Z,56.50
2018-07-06T14:25:54.702Z,51.50
2018-07-06T14:28:23.102Z,52.10
2018-07-06T14:30:57.623Z,52.20
2018-07-06T14:33:25.757Z,51.90
2018-07-06T14:35:57.770Z,51.00
2018-07-06T14:38:25.829Z,54.00
2018-07-06T14:40:53.931Z,57.30
2018-07-06T14:43:22.068Z,58.00
2018-07-06T14:45:58.710Z,59.10
2018-07-06T14:48:26.819Z,56.00
2018-07-06T14:50:55.012Z,51.20
2018-07-06T14:53:29.077Z,47.40
2018-07-06T14:55:57.153Z,44.00
2018-07-06T14:58:25.260Z,41.00
2018-07-06T15:00:59.575Z,41.80
2018-07-06T15:03:27.804Z,41.50
2018-07-06T15:05:55.939Z,45.20
2018-07-06T15:08:29.866Z,48.50
2018-07-06T15:10:57.978Z,46.00
2018-07-06T15:13:26.150Z,42.70
2018-07-06T15:15:59.925Z,40.90
2018-07-06T15:18:37.853Z,42.20
2018-07-06T15:21:09.199Z,47.00
2018-07-06T15:23:37.310Z,49.50
2018-07-06T15:26:05.536Z,48.00
2018-07-06T15:28:39.961Z,43.80
2018-07-06T15:31:08.071Z,45.30
2018-07-06T15:33:39.969Z,43.50
2018-07-06T15:36:08.088Z,46.50
2018-07-06T15:38:38.177Z,50.30
2018-07-06T15:41:06.887Z,49.20
2018-07-06T15:43:38.566Z,45.70
2018-07-06T15:46:06.661Z,43.80
2018-07-06T15:48:38.326Z,44.60
2018-07-06T15:51:06.530Z,45.60
2018-07-06T15:53:38.389Z,48.20
2018-07-06T15:56:06.515Z,50.40
2018-07-06T15:58:34.632Z,52.20
2018-07-06T16:01:02.824Z,50.60
2018-07-06T16:03:30.957Z,50.00
2018-07-06T16:08:27.814Z,49.60
2018-07-06T16:10:55.998Z,49.00
2018-07-06T16:13:30.153Z,49.40
2018-07-06T16:16:08.245Z,51.80
2018-07-06T16:18:40.393Z,51.20
2018-07-06T16:21:08.479Z,47.50
2018-07-06T16:23:38.440Z,46.50
2018-07-06T16:26:06.781Z,46.60
2018-07-06T16:28:34.993Z,47.30
2018-07-06T16:31:03.178Z,44.70
2018-07-06T16:33:31.336Z,42.70
2018-07-06T16:35:59.480Z,42.90
2018-07-06T16:38:27.589Z,43.60
2018-07-06T16:40:55.673Z,43.70
2018-07-06T16:43:23.731Z,43.10
2018-07-06T16:45:58.259Z,44.00
2018-07-06T16:48:29.569Z,44.00
2018-07-06T16:50:57.638Z,44.10
2018-07-06T16:53:29.532Z,43.50
2018-07-06T16:55:58.237Z,42.90
2018-07-06T16:58:29.354Z,43.30
2018-07-06T17:00:58.150Z,43.20
2018-07-06T17:03:26.217Z,43.10
2018-07-06T17:05:54.323Z,42.20
2018-07-06T17:10:50.973Z,40.50
2018-07-06T17:13:19.083Z,38.30
2018-07-06T17:15:48.032Z,37.80
2018-07-06T17:18:17.824Z,38.40
2018-07-06T17:20:46.432Z,35.80
2018-07-06T17:23:20.077Z,36.80
2018-07-06T17:25:48.202Z,37.10
2018-07-06T17:28:16.898Z,38.20
2018-07-06T17:30:44.976Z,39.00
2018-07-06T17:35:41.094Z,40.20
2018-07-06T17:38:09.793Z,40.60
2018-07-06T17:40:37.967Z,39.90
2018-07-06T17:43:09.068Z,40.00
2018-07-06T17:45:37.157Z,39.50
2018-07-06T17:48:05.686Z,40.20
2018-07-06T17:50:33.774Z,41.10
2018-07-06T17:53:01.843Z,40.30
2018-07-06T17:55:29.932Z,41.10
2018-07-06T17:57:58.056Z,41.10
2018-07-06T18:00:29.341Z,39.90
2018-07-06T18:02:57.461Z,39.90
2018-07-06T18:05:29.488Z,39.60
2018-07-06T18:07:58.052Z,39.00
2018-07-06T18:10:26.173Z,39.20
2018-07-06T18:12:54.438Z,40.10
2018-07-06T18:15:22.545Z,41.00
2018-07-06T18:17:50.627Z,41.80
2018-07-06T18:20:28.635Z,42.30
2018-07-06T18:22:56.818Z,42.30
2018-07-06T18:25:24.861Z,42.40
2018-07-06T18:27:52.948Z,42.00
2018-07-06T18:30:28.020Z,42.70
2018-07-06T18:32:59.320Z,42.70
2018-07-06T18:35:27.404Z,43.70
2018-07-06T18:37:59.193Z,44.00
2018-07-06T18:40:28.158Z,45.30
2018-07-06T18:42:58.241Z,46.10
2018-07-06T18:45:28.070Z,47.20
2018-07-06T18:47:56.137Z,48.20
2018-07-06T18:50:30.159Z,49.50
2018-07-06T18:53:08.431Z,50.70
2018-07-06T18:55:36.494Z,52.00
2018-07-06T18:58:04.815Z,52.60
2018-07-06T19:00:32.998Z,53.80
2018-07-06T19:03:07.883Z,53.70
2018-07-06T19:05:35.965Z,54.50
2018-07-06T19:08:08.001Z,54.50
2018-07-06T19:10:36.057Z,54.90
2018-07-06T19:13:08.751Z,56.30
2018-07-06T19:15:38.830Z,55.90
2018-07-06T19:18:08.478Z,56.40
2018-07-06T19:20:36.848Z,56.70
2018-07-06T19:23:04.925Z,57.40
2018-07-06T19:28:00.908Z,57.50
2018-07-06T19:30:28.993Z,57.80
2018-07-06T19:32:57.171Z,57.60
2018-07-06T19:35:25.232Z,58.00
2018-07-06T19:37:53.318Z,58.70
2018-07-06T19:40:28.180Z,59.00
2018-07-06T19:42:59.676Z,59.50
2018-07-06T19:45:28.382Z,59.70
2018-07-06T19:47:56.455Z,60.70
2018-07-06T19:50:24.622Z,61.10
2018-07-06T19:52:52.728Z,60.90
2018-07-06T19:55:20.859Z,60.60
2018-07-06T19:57:48.907Z,61.00
2018-07-06T20:00:16.975Z,61.10
2018-07-06T20:02:48.377Z,61.70
2018-07-06T20:05:16.488Z,63.40
2018-07-06T20:07:48.239Z,63.50
2018-07-06T20:12:44.142Z,63.80
2018-07-06T20:15:12.241Z,62.20
2018-07-06T20:17:48.078Z,61.60
2018-07-06T20:20:16.114Z,61.50
2018-07-06T20:22:47.805Z,61.70
2018-07-06T20:25:15.841Z,61.30
2018-07-06T20:27:47.755Z,61.40
2018-07-06T20:30:18.822Z,61.20
2018-07-06T20:32:46.885Z,61.70
2018-07-06T20:35:18.732Z,61.80
2018-07-06T20:40:18.636Z,62.50
2018-07-06T20:42:46.990Z,62.80
2018-07-06T20:47:55.128Z,64.00
2018-07-06T20:50:29.495Z,63.70
2018-07-06T20:52:57.520Z,64.60
2018-07-06T20:55:25.594Z,64.40
2018-07-06T20:57:53.646Z,65.50
2018-07-06T21:00:21.685Z,65.50
2018-07-06T21:02:57.837Z,66.30
2018-07-06T21:05:29.696Z,66.60
2018-07-06T21:07:57.793Z,67.20
2018-07-06T21:10:27.815Z,68.00
2018-07-06T21:12:55.873Z,69.10
2018-07-06T21:15:29.937Z,70.10
2018-07-06T21:18:07.707Z,70.50
2018-07-06T21:20:39.105Z,71.20
2018-07-06T21:23:07.154Z,72.00
2018-07-06T21:25:35.215Z,72.60
2018-07-06T21:28:08.727Z,72.90
2018-07-06T21:30:36.810Z,73.40
2018-07-06T21:33:04.850Z,73.70
2018-07-06T21:35:39.383Z,74.30
2018-07-06T21:38:07.540Z,75.60
2018-07-06T21:40:38.926Z,76.80
2018-07-06T21:43:08.449Z,77.80
2018-07-06T21:45:39.708Z,78.50
2018-07-06T21:48:07.913Z,79.30
2018-07-06T21:50:36.001Z,80.00
2018-07-06T21:53:04.260Z,81.10
2018-07-06T21:55:33.503Z,81.70
2018-07-06T21:58:08.463Z,82.60
2018-07-06T22:00:38.279Z,83.90
2018-07-06T22:03:07.269Z,85.00
2018-07-06T22:08:03.596Z,87.20
2018-07-06T22:10:32.086Z,88.00
2018-07-06T22:13:08.516Z,88.00
2018-07-06T22:15:44.950Z,88.70
2018-07-06T22:18:19.764Z,89.40
2018-07-06T22:20:48.751Z,90.20
2018-07-06T22:23:17.679Z,90.80
2018-07-06T22:25:45.729Z,91.20
2018-07-06T22:28:19.966Z,91.70
2018-07-06T22:30:48.021Z,92.20
2018-07-06T22:33:19.707Z,92.50
2018-07-06T22:35:48.038Z,92.90
2018-07-06T22:38:16.091Z,93.40
2018-07-06T22:40:44.130Z,94.00
2018-07-06T22:43:18.866Z,94.50
2018-07-06T22:45:49.944Z,95.10
2018-07-06T22:48:18.303Z,95.60
2018-07-06T22:50:46.914Z,96.20
2018-07-06T22:53:15.135Z,96.70
2018-07-06T22:55:43.469Z,97.20
2018-07-06T22:58:11.510Z,97.50
2018-07-06T23:00:39.575Z,97.80
2018-07-06T23:03:07.619Z,98.30
2018-07-06T23:05:35.679Z,99.20
2018-07-06T23:08:03.701Z,99.70
2018-07-06T23:10:31.720Z,99.90
2018-07-06T23:13:08.037Z,99.90
2018-07-06T23:15:39.531Z,99.90
2018-07-06T23:18:09.278Z,99.90
2018-07-06T23:20:37.343Z,99.90
2018-07-06T23:23:12.532Z,99.90
2018-07-06T23:25:41.750Z,99.90
2018-07-06T23:28:19.332Z,99.90
2018-07-06T23:30:47.371Z,99.90
2018-07-06T23:33:15.680Z,99.90
2018-07-06T23:35:49.612Z,99.90
2018-07-06T23:38:18.095Z,99.90
2018-07-06T23:40:46.072Z,99.90
2018-07-06T23:43:20.270Z,99.90
2018-07-06T23:45:48.425Z,99.90
2018-07-06T23:48:20.293Z,99.90
2018-07-06T23:50:48.349Z,99.90
2018-07-06T23:53:16.917Z,99.90
2018-07-06T23:55:44.937Z,99.90
2018-07-06T23:58:18.956Z,99.90
